createdAt,value
2019-03-22T00:00:55.024Z,22.98
2019-03-22T00:01:54.788Z,22.84
2019-03-22T00:02:54.777Z,22.95
2019-03-22T00:03:54.769Z,22.89
2019-03-22T00:04:54.754Z,22.91
2019-03-22T00:05:54.744Z,22.86
2019-03-22T00:06:54.862Z,22.88
2019-03-22T00:07:54.732Z,22.91
2019-03-22T00:08:54.716Z,22.98
2019-03-22T00:09:54.705Z,22.86
2019-03-22T00:10:54.695Z,22.95
2019-03-22T00:11:54.684Z,22.88
2019-03-22T00:12:54.989Z,22.92
2019-03-22T00:13:54.665Z,22.84
2019-03-22T00:14:54.657Z,22.91
2019-03-22T00:15:54.635Z,22.84
2019-03-22T00:16:54.625Z,22.86
2019-03-22T00:17:54.630Z,22.92
2019-03-22T00:18:54.891Z,22.81
2019-03-22T00:19:54.610Z,22.86
2019-03-22T00:20:54.581Z,22.92
2019-03-22T00:21:54.571Z,22.95
2019-03-22T00:22:54.561Z,22.86
2019-03-22T00:23:54.549Z,22.89
2019-03-22T00:24:54.648Z,22.86
2019-03-22T00:25:54.530Z,22.77
2019-03-22T00:26:54.522Z,22.86
2019-03-22T00:27:54.508Z,22.78
2019-03-22T00:28:54.501Z,22.74
2019-03-22T00:29:54.491Z,22.78
2019-03-22T00:30:54.763Z,22.86
2019-03-22T00:31:54.462Z,22.77
2019-03-22T00:32:54.458Z,22.83
2019-03-22T00:33:54.526Z,22.78
2019-03-22T00:34:54.441Z,22.76
2019-03-22T00:35:54.427Z,22.76
2019-03-22T00:36:54.592Z,22.81
2019-03-22T00:37:54.402Z,22.78
2019-03-22T00:38:54.399Z,22.71
2019-03-22T00:39:54.383Z,22.73
2019-03-22T00:40:54.371Z,22.73
2019-03-22T00:41:54.362Z,22.77
2019-03-22T00:42:54.449Z,22.78
2019-03-22T00:43:54.357Z,22.76
2019-03-22T00:44:54.331Z,22.76
2019-03-22T00:45:54.313Z,22.74
2019-03-22T00:46:54.304Z,22.76
2019-03-22T00:47:54.300Z,22.71
2019-03-22T00:48:54.390Z,22.77
2019-03-22T00:49:54.271Z,22.71
2019-03-22T00:50:54.262Z,22.74
2019-03-22T00:51:54.247Z,22.65
2019-03-22T00:52:54.237Z,22.65
2019-03-22T00:53:54.252Z,22.77
2019-03-22T00:54:54.317Z,22.70
2019-03-22T00:55:54.221Z,22.70
2019-03-22T00:56:54.193Z,22.67
2019-03-22T00:57:54.181Z,22.61
2019-03-22T00:58:54.179Z,22.70
2019-03-22T00:59:54.168Z,22.71
2019-03-22T01:00:54.242Z,22.62
2019-03-22T01:01:54.145Z,22.67
2019-03-22T01:02:54.128Z,22.62
2019-03-22T01:03:54.125Z,22.59
2019-03-22T01:04:54.116Z,22.61
2019-03-22T01:05:54.120Z,22.65
2019-03-22T01:06:54.390Z,22.68
2019-03-22T01:07:54.075Z,22.63
2019-03-22T01:08:54.106Z,22.68
2019-03-22T01:09:54.055Z,22.68
2019-03-22T01:10:54.042Z,22.65
2019-03-22T01:11:54.034Z,22.68
2019-03-22T01:12:54.118Z,22.63
2019-03-22T01:13:54.011Z,22.63
2019-03-22T01:14:54.008Z,22.62
2019-03-22T01:15:53.992Z,22.65
2019-03-22T01:16:53.984Z,22.63
2019-03-22T01:17:53.973Z,22.67
2019-03-22T01:18:54.068Z,22.58
2019-03-22T01:19:53.949Z,22.62
2019-03-22T01:20:53.942Z,22.65
2019-03-22T01:21:53.934Z,22.61
2019-03-22T01:22:53.926Z,22.62
2019-03-22T01:23:53.901Z,22.59
2019-03-22T01:24:54.063Z,22.58
2019-03-22T01:25:53.886Z,22.55
2019-03-22T01:26:53.868Z,22.58
2019-03-22T01:27:53.863Z,22.56
2019-03-22T01:28:53.845Z,22.62
2019-03-22T01:29:53.836Z,22.58
2019-03-22T01:30:54.128Z,22.55
2019-03-22T01:31:53.818Z,22.53
2019-03-22T01:32:53.806Z,22.55
2019-03-22T01:33:53.793Z,22.58
2019-03-22T01:34:53.786Z,22.58
2019-03-22T01:35:53.776Z,22.59
2019-03-22T01:36:53.861Z,22.59
2019-03-22T01:37:53.754Z,22.59
2019-03-22T01:38:53.747Z,22.52
2019-03-22T01:39:53.726Z,22.58
2019-03-22T01:40:53.719Z,22.59
2019-03-22T01:41:53.728Z,22.47
2019-03-22T01:42:53.867Z,22.59
2019-03-22T01:43:53.685Z,22.47
2019-03-22T01:44:53.672Z,22.56
2019-03-22T01:45:53.670Z,22.59
2019-03-22T01:46:53.651Z,22.46
2019-03-22T01:47:53.640Z,22.55
2019-03-22T01:48:53.920Z,22.53
2019-03-22T01:49:53.617Z,22.46
2019-03-22T01:50:53.612Z,22.58
2019-03-22T01:51:53.600Z,22.46
2019-03-22T01:52:53.588Z,22.46
2019-03-22T01:53:53.579Z,22.56
2019-03-22T01:54:53.676Z,22.47
2019-03-22T01:55:53.552Z,22.49
2019-03-22T01:56:53.567Z,22.59
2019-03-22T01:57:54.136Z,22.46
2019-03-22T01:58:53.530Z,22.47
2019-03-22T01:59:53.515Z,22.62
2019-03-22T02:00:53.668Z,22.59
2019-03-22T02:01:53.487Z,22.52
2019-03-22T02:02:53.475Z,22.55
2019-03-22T02:03:53.490Z,22.59
2019-03-22T02:04:53.459Z,22.59
2019-03-22T02:05:53.443Z,22.59
2019-03-22T02:06:53.631Z,22.61
2019-03-22T02:07:53.437Z,22.62
2019-03-22T02:08:53.424Z,22.62
2019-03-22T02:09:53.405Z,22.55
2019-03-22T02:10:53.393Z,22.56
2019-03-22T02:11:53.379Z,22.52
2019-03-22T02:12:53.471Z,22.59
2019-03-22T02:13:53.361Z,22.59
2019-03-22T02:14:53.352Z,22.44
2019-03-22T02:15:53.341Z,22.52
2019-03-22T02:16:53.328Z,22.58
2019-03-22T02:17:53.322Z,22.52
2019-03-22T02:18:53.395Z,22.49
2019-03-22T02:19:53.295Z,22.52
2019-03-22T02:20:53.291Z,22.59
2019-03-22T02:21:53.273Z,22.53
2019-03-22T02:22:53.273Z,22.46
2019-03-22T02:23:53.259Z,22.52
2019-03-22T02:24:53.413Z,22.46
2019-03-22T02:25:53.231Z,22.55
2019-03-22T02:26:53.218Z,22.43
2019-03-22T02:28:03.714Z,22.51
2019-03-22T02:28:54.206Z,22.46
2019-03-22T02:29:53.202Z,22.49
2019-03-22T02:30:53.283Z,22.41
2019-03-22T02:31:53.169Z,22.52
2019-03-22T02:32:53.154Z,22.47
2019-03-22T02:33:53.145Z,22.47
2019-03-22T02:34:53.135Z,22.49
2019-03-22T02:35:53.128Z,22.51
2019-03-22T02:36:53.222Z,22.43
2019-03-22T02:37:53.096Z,22.44
2019-03-22T02:38:53.084Z,22.46
2019-03-22T02:39:53.083Z,22.41
2019-03-22T02:40:53.088Z,22.44
2019-03-22T02:41:53.054Z,22.44
2019-03-22T02:42:53.371Z,22.40
2019-03-22T02:43:54.732Z,22.37
2019-03-22T02:44:53.024Z,22.46
2019-03-22T02:45:53.019Z,22.41
2019-03-22T02:46:53.024Z,22.49
2019-03-22T02:47:53.011Z,22.47
2019-03-22T02:48:53.256Z,22.47
2019-03-22T02:49:52.999Z,22.44
2019-03-22T02:50:55.981Z,22.40
2019-03-22T02:51:52.951Z,22.40
2019-03-22T02:52:52.944Z,22.46
2019-03-22T02:53:52.929Z,22.38
2019-03-22T02:54:53.013Z,22.40
2019-03-22T02:55:52.939Z,22.46
2019-03-22T02:56:52.901Z,22.38
2019-03-22T02:57:52.887Z,22.38
2019-03-22T02:58:52.867Z,22.41
2019-03-22T02:59:52.860Z,22.43
2019-03-22T03:00:53.033Z,22.41
2019-03-22T03:01:52.848Z,22.40
2019-03-22T03:02:52.825Z,22.41
2019-03-22T03:03:52.827Z,22.34
2019-03-22T03:04:52.806Z,22.40
2019-03-22T03:05:52.798Z,22.37
2019-03-22T03:06:52.875Z,22.34
2019-03-22T03:07:52.780Z,22.34
2019-03-22T03:08:52.761Z,22.38
2019-03-22T03:09:52.874Z,22.40
2019-03-22T03:10:52.745Z,22.34
2019-03-22T03:11:52.734Z,22.38
2019-03-22T03:12:52.900Z,22.38
2019-03-22T03:13:52.718Z,22.38
2019-03-22T03:14:52.694Z,22.30
2019-03-22T03:15:52.694Z,22.38
2019-03-22T03:16:52.696Z,22.36
2019-03-22T03:17:52.673Z,22.40
2019-03-22T03:18:52.828Z,22.36
2019-03-22T03:19:52.641Z,22.36
2019-03-22T03:20:52.640Z,22.40
2019-03-22T03:21:52.629Z,22.36
2019-03-22T03:22:52.610Z,22.41
2019-03-22T03:23:52.597Z,22.40
2019-03-22T03:24:52.696Z,22.41
2019-03-22T03:25:52.578Z,22.38
2019-03-22T03:26:52.567Z,22.38
2019-03-22T03:27:52.567Z,22.34
2019-03-22T03:28:52.546Z,22.37
2019-03-22T03:29:52.535Z,22.41
2019-03-22T03:30:52.642Z,22.44
2019-03-22T03:31:52.515Z,22.38
2019-03-22T03:32:52.522Z,22.46
2019-03-22T03:33:52.503Z,22.40
2019-03-22T03:34:52.508Z,22.40
2019-03-22T03:35:52.467Z,22.38
2019-03-22T03:36:52.652Z,22.40
2019-03-22T03:37:52.457Z,22.46
2019-03-22T03:38:52.461Z,22.40
2019-03-22T03:39:52.427Z,22.43
2019-03-22T03:40:52.414Z,22.41
2019-03-22T03:41:52.406Z,22.37
2019-03-22T03:42:52.566Z,22.38
2019-03-22T03:43:52.389Z,22.47
2019-03-22T03:44:52.371Z,22.38
2019-03-22T03:45:52.360Z,22.40
2019-03-22T03:46:52.350Z,22.47
2019-03-22T03:47:52.342Z,22.53
2019-03-22T03:48:52.446Z,22.46
2019-03-22T03:49:52.320Z,22.44
2019-03-22T03:50:52.318Z,22.44
2019-03-22T03:51:52.291Z,22.41
2019-03-22T03:52:52.295Z,22.43
2019-03-22T03:53:52.272Z,22.43
2019-03-22T03:54:52.370Z,22.43
2019-03-22T03:55:52.256Z,22.40
2019-03-22T03:56:52.238Z,22.38
2019-03-22T03:57:52.226Z,22.43
2019-03-22T03:58:53.132Z,22.43
2019-03-22T03:59:52.215Z,22.38
2019-03-22T04:00:52.392Z,22.40
2019-03-22T04:01:52.185Z,22.40
2019-03-22T04:02:52.178Z,22.41
2019-03-22T04:03:52.172Z,22.43
2019-03-22T04:04:52.154Z,22.38
2019-03-22T04:05:52.143Z,22.38
2019-03-22T04:06:52.263Z,22.40
2019-03-22T04:07:52.121Z,22.43
2019-03-22T04:08:52.111Z,22.41
2019-03-22T04:09:52.100Z,22.41
2019-03-22T04:10:52.096Z,22.37
2019-03-22T04:11:52.080Z,22.37
2019-03-22T04:12:52.176Z,22.40
2019-03-22T04:13:52.062Z,22.43
2019-03-22T04:14:52.049Z,22.40
2019-03-22T04:15:52.059Z,22.37
2019-03-22T04:16:52.035Z,22.43
2019-03-22T04:17:52.012Z,22.43
2019-03-22T04:18:52.195Z,22.38
2019-03-22T04:19:52.005Z,22.43
2019-03-22T04:20:51.995Z,22.43
2019-03-22T04:21:51.972Z,22.37
2019-03-22T04:22:51.964Z,22.34
2019-03-22T04:23:51.947Z,22.43
2019-03-22T04:24:52.063Z,22.30
2019-03-22T04:25:51.925Z,22.34
2019-03-22T04:26:51.915Z,22.36
2019-03-22T04:27:51.914Z,22.41
2019-03-22T04:29:06.144Z,22.34
2019-03-22T04:29:52.979Z,22.36
2019-03-22T04:30:51.874Z,22.36
2019-03-22T04:31:51.864Z,22.37
2019-03-22T04:32:51.854Z,22.36
2019-03-22T04:33:51.844Z,22.36
2019-03-22T04:34:51.834Z,22.37
2019-03-22T04:35:52.008Z,22.37
2019-03-22T04:36:51.813Z,22.37
2019-03-22T04:37:51.800Z,22.37
2019-03-22T04:38:51.785Z,22.37
2019-03-22T04:39:51.774Z,22.36
2019-03-22T04:40:51.771Z,22.38
2019-03-22T04:41:51.924Z,22.43
2019-03-22T04:42:51.741Z,22.40
2019-03-22T04:43:51.731Z,22.51
2019-03-22T04:44:51.720Z,22.49
2019-03-22T04:45:51.708Z,22.49
2019-03-22T04:46:51.699Z,22.55
2019-03-22T04:47:51.790Z,22.46
2019-03-22T04:48:51.676Z,22.47
2019-03-22T04:49:51.667Z,22.62
2019-03-22T04:50:51.667Z,22.49
2019-03-22T04:51:51.645Z,22.43
2019-03-22T04:52:51.640Z,22.46
2019-03-22T04:53:51.724Z,22.43
2019-03-22T04:54:51.615Z,22.46
2019-03-22T04:55:51.607Z,22.53
2019-03-22T04:56:51.594Z,22.47
2019-03-22T04:57:51.585Z,22.44
2019-03-22T04:58:51.575Z,22.47
2019-03-22T04:59:51.833Z,22.46
2019-03-22T05:00:51.589Z,22.44
2019-03-22T05:01:51.555Z,22.43
2019-03-22T05:02:51.533Z,22.51
2019-03-22T05:03:51.518Z,22.41
2019-03-22T05:04:51.504Z,22.36
2019-03-22T05:05:51.595Z,22.34
2019-03-22T05:06:51.484Z,22.40
2019-03-22T05:07:51.469Z,22.38
2019-03-22T05:08:51.459Z,22.34
2019-03-22T05:09:51.449Z,22.36
2019-03-22T05:10:51.438Z,22.36
2019-03-22T05:11:51.524Z,22.44
2019-03-22T05:12:51.438Z,22.37
2019-03-22T05:13:51.414Z,22.41
2019-03-22T05:14:51.397Z,22.38
2019-03-22T05:15:51.383Z,22.36
2019-03-22T05:16:51.378Z,22.41
2019-03-22T05:17:51.546Z,22.38
2019-03-22T05:18:51.351Z,22.38
2019-03-22T05:19:51.343Z,22.38
2019-03-22T05:20:51.329Z,22.40
2019-03-22T05:21:51.340Z,22.40
2019-03-22T05:22:51.317Z,22.46
2019-03-22T05:23:51.395Z,22.44
2019-03-22T05:24:51.287Z,22.46
2019-03-22T05:25:51.278Z,22.38
2019-03-22T05:26:51.273Z,22.49
2019-03-22T05:27:51.254Z,22.49
2019-03-22T05:28:51.252Z,22.38
2019-03-22T05:29:51.339Z,22.47
2019-03-22T05:30:51.222Z,22.43
2019-03-22T05:31:51.212Z,22.55
2019-03-22T05:32:51.218Z,22.51
2019-03-22T05:33:51.194Z,22.51
2019-03-22T05:34:51.184Z,22.41
2019-03-22T05:35:51.452Z,22.49
2019-03-22T05:36:51.158Z,22.51
2019-03-22T05:37:51.149Z,22.46
2019-03-22T05:38:51.142Z,22.49
2019-03-22T05:39:51.129Z,22.46
2019-03-22T05:40:51.121Z,22.43
2019-03-22T05:41:51.265Z,22.41
2019-03-22T05:42:51.089Z,22.43
2019-03-22T05:43:51.113Z,22.47
2019-03-22T05:44:51.071Z,22.40
2019-03-22T05:45:51.058Z,22.43
2019-03-22T05:46:51.046Z,22.58
2019-03-22T05:47:51.308Z,22.51
2019-03-22T05:48:51.036Z,22.43
2019-03-22T05:49:51.015Z,22.46
2019-03-22T05:50:51.016Z,22.59
2019-03-22T05:51:50.995Z,22.59
2019-03-22T05:52:52.748Z,22.55
2019-03-22T05:53:51.090Z,22.59
2019-03-22T05:54:50.970Z,22.53
2019-03-22T05:55:50.954Z,22.58
2019-03-22T05:56:50.941Z,22.59
2019-03-22T05:57:50.927Z,22.63
2019-03-22T05:58:50.944Z,22.63
2019-03-22T05:59:50.999Z,22.65
2019-03-22T06:00:50.904Z,22.67
2019-03-22T06:01:50.898Z,22.62
2019-03-22T06:02:50.873Z,22.71
2019-03-22T06:03:50.864Z,22.70
2019-03-22T06:04:50.855Z,22.63
2019-03-22T06:05:51.484Z,22.68
2019-03-22T06:06:50.833Z,22.62
2019-03-22T06:07:50.823Z,22.68
2019-03-22T06:08:50.839Z,22.73
2019-03-22T06:09:50.800Z,22.73
2019-03-22T06:10:50.792Z,22.77
2019-03-22T06:11:50.897Z,22.74
2019-03-22T06:12:50.766Z,22.71
2019-03-22T06:13:50.757Z,22.77
2019-03-22T06:14:50.749Z,22.81
2019-03-22T06:15:50.737Z,22.83
2019-03-22T06:16:50.728Z,22.80
2019-03-22T06:17:51.947Z,22.77
2019-03-22T06:18:50.701Z,22.77
2019-03-22T06:19:50.707Z,22.78
2019-03-22T06:20:50.687Z,22.83
2019-03-22T06:21:50.677Z,22.81
2019-03-22T06:22:50.657Z,22.84
2019-03-22T06:23:50.921Z,22.88
2019-03-22T06:24:50.635Z,22.84
2019-03-22T06:25:50.624Z,22.88
2019-03-22T06:26:50.613Z,22.89
2019-03-22T06:27:50.602Z,22.86
2019-03-22T06:28:50.592Z,22.88
2019-03-22T06:29:54.523Z,22.92
2019-03-22T06:30:50.584Z,22.95
2019-03-22T06:31:50.562Z,22.98
2019-03-22T06:32:50.555Z,22.93
2019-03-22T06:33:50.538Z,22.95
2019-03-22T06:34:50.529Z,22.95
2019-03-22T06:35:50.674Z,22.96
2019-03-22T06:36:50.534Z,23.02
2019-03-22T06:37:50.513Z,22.98
2019-03-22T06:38:50.489Z,22.96
2019-03-22T06:39:50.471Z,23.10
2019-03-22T06:40:50.470Z,23.01
2019-03-22T06:41:50.742Z,23.01
2019-03-22T06:42:50.441Z,23.02
2019-03-22T06:43:50.427Z,23.10
2019-03-22T06:44:50.417Z,23.02
2019-03-22T06:45:50.410Z,23.04
2019-03-22T06:46:50.408Z,23.07
2019-03-22T06:47:50.485Z,23.04
2019-03-22T06:48:50.378Z,23.04
2019-03-22T06:49:50.370Z,23.07
2019-03-22T06:50:50.354Z,23.07
2019-03-22T06:51:50.348Z,23.08
2019-03-22T06:52:52.039Z,23.13
2019-03-22T06:53:50.430Z,23.08
2019-03-22T06:54:50.315Z,22.98
2019-03-22T06:55:50.302Z,23.08
2019-03-22T06:56:50.294Z,23.17
2019-03-22T06:57:50.282Z,23.11
2019-03-22T06:58:50.272Z,23.18
2019-03-22T06:59:50.457Z,23.18
2019-03-22T07:00:50.244Z,23.20
2019-03-22T07:01:50.242Z,23.13
2019-03-22T07:02:50.256Z,23.11
2019-03-22T07:03:50.224Z,23.14
2019-03-22T07:04:50.201Z,23.14
2019-03-22T07:05:50.338Z,23.14
2019-03-22T07:06:50.179Z,23.25
2019-03-22T07:07:50.183Z,23.18
2019-03-22T07:08:50.158Z,23.18
2019-03-22T07:09:50.149Z,23.29
2019-03-22T07:10:50.135Z,23.25
2019-03-22T07:11:50.229Z,23.18
2019-03-22T07:12:50.117Z,23.20
2019-03-22T07:13:50.111Z,23.23
2019-03-22T07:14:50.098Z,23.25
2019-03-22T07:15:50.082Z,23.29
2019-03-22T07:16:50.069Z,23.23
2019-03-22T07:17:50.275Z,23.29
2019-03-22T07:18:50.065Z,23.21
2019-03-22T07:19:50.053Z,23.21
2019-03-22T07:20:50.037Z,23.26
2019-03-22T07:21:50.018Z,23.29
2019-03-22T07:22:50.010Z,23.32
2019-03-22T07:23:50.088Z,23.26
2019-03-22T07:24:49.986Z,23.28
2019-03-22T07:25:49.982Z,23.28
2019-03-22T07:26:49.962Z,23.36
2019-03-22T07:27:49.951Z,23.33
2019-03-22T07:28:49.941Z,23.33
2019-03-22T07:29:50.096Z,23.33
2019-03-22T07:30:49.922Z,23.32
2019-03-22T07:31:49.909Z,23.32
2019-03-22T07:32:49.898Z,23.36
2019-03-22T07:33:49.890Z,23.33
2019-03-22T07:34:49.881Z,23.37
2019-03-22T07:35:50.033Z,23.37
2019-03-22T07:36:49.861Z,23.40
2019-03-22T07:37:49.842Z,23.42
2019-03-22T07:38:49.831Z,23.44
2019-03-22T07:39:49.828Z,23.34
2019-03-22T07:40:49.811Z,23.42
2019-03-22T07:41:49.902Z,23.37
2019-03-22T07:42:49.791Z,23.40
2019-03-22T07:43:49.778Z,23.42
2019-03-22T07:44:49.768Z,23.39
2019-03-22T07:45:49.760Z,23.45
2019-03-22T07:46:49.754Z,23.47
2019-03-22T07:47:49.952Z,23.44
2019-03-22T07:48:49.723Z,23.51
2019-03-22T07:49:49.717Z,23.49
2019-03-22T07:50:49.702Z,23.52
2019-03-22T07:51:49.694Z,23.49
2019-03-22T07:52:49.680Z,23.45
2019-03-22T07:53:49.839Z,23.49
2019-03-22T07:54:49.689Z,23.49
2019-03-22T07:55:49.651Z,23.48
2019-03-22T07:56:49.645Z,23.55
2019-03-22T07:57:49.635Z,23.56
2019-03-22T07:58:49.614Z,23.66
2019-03-22T07:59:49.704Z,23.59
2019-03-22T08:00:49.600Z,23.63
2019-03-22T08:01:49.584Z,23.54
2019-03-22T08:02:49.579Z,23.56
2019-03-22T08:03:49.563Z,23.64
2019-03-22T08:04:49.559Z,23.67
2019-03-22T08:05:51.562Z,23.63
2019-03-22T08:06:49.539Z,23.67
2019-03-22T08:07:49.520Z,23.62
2019-03-22T08:08:49.509Z,23.54
2019-03-22T08:09:51.253Z,23.62
2019-03-22T08:10:49.488Z,23.58
2019-03-22T08:11:49.584Z,23.59
2019-03-22T08:12:49.485Z,23.56
2019-03-22T08:13:49.452Z,23.58
2019-03-22T08:14:49.445Z,23.56
2019-03-22T08:15:49.464Z,23.55
2019-03-22T08:16:49.433Z,23.49
2019-03-22T08:17:49.522Z,23.47
2019-03-22T08:18:49.405Z,23.52
2019-03-22T08:19:49.389Z,23.52
2019-03-22T08:20:49.405Z,23.52
2019-03-22T08:21:49.372Z,23.52
2019-03-22T08:22:49.364Z,23.49
2019-03-22T08:23:49.515Z,23.47
2019-03-22T08:24:49.379Z,23.48
2019-03-22T08:25:49.331Z,23.49
2019-03-22T08:26:49.323Z,23.47
2019-03-22T08:27:49.332Z,23.44
2019-03-22T08:28:49.290Z,23.49
2019-03-22T08:29:49.388Z,23.49
2019-03-22T08:30:49.343Z,23.51
2019-03-22T08:31:49.267Z,23.47
2019-03-22T08:32:50.469Z,23.48
2019-03-22T08:33:49.263Z,23.55
2019-03-22T08:34:49.303Z,23.51
2019-03-22T08:35:49.414Z,23.52
2019-03-22T08:36:49.209Z,23.58
2019-03-22T08:37:52.737Z,23.55
2019-03-22T08:38:49.205Z,23.47
2019-03-22T08:39:49.249Z,23.51
2019-03-22T08:40:49.203Z,23.55
2019-03-22T08:41:49.334Z,23.49
2019-03-22T08:42:49.190Z,23.58
2019-03-22T08:43:49.164Z,23.52
2019-03-22T08:44:49.119Z,23.51
2019-03-22T08:45:49.107Z,23.58
2019-03-22T08:46:49.093Z,23.56
2019-03-22T08:47:49.245Z,23.51
2019-03-22T08:48:49.076Z,23.52
2019-03-22T08:49:49.233Z,23.55
2019-03-22T08:50:49.051Z,23.52
2019-03-22T08:51:49.804Z,23.56
2019-03-22T08:52:49.085Z,23.59
2019-03-22T08:53:55.078Z,23.56
2019-03-22T08:54:50.022Z,23.56
2019-03-22T08:55:48.997Z,23.56
2019-03-22T08:56:48.986Z,23.58
2019-03-22T08:57:49.013Z,23.54
2019-03-22T08:58:48.972Z,23.51
2019-03-22T08:59:49.159Z,23.49
2019-03-22T09:00:57.339Z,23.56
2019-03-22T09:01:49.931Z,23.54
2019-03-22T09:02:49.848Z,23.49
2019-03-22T09:03:48.949Z,23.47
2019-03-22T09:04:48.905Z,23.51
2019-03-22T09:05:48.987Z,23.51
2019-03-22T09:06:48.880Z,23.48
2019-03-22T09:07:48.866Z,23.48
2019-03-22T09:08:48.878Z,23.47
2019-03-22T09:09:48.854Z,23.48
2019-03-22T09:10:48.838Z,23.44
2019-03-22T09:11:48.923Z,23.37
2019-03-22T09:12:48.818Z,23.40
2019-03-22T09:13:48.807Z,23.44
2019-03-22T09:14:48.796Z,23.37
2019-03-22T09:15:48.787Z,23.42
2019-03-22T09:16:48.772Z,23.36
2019-03-22T09:17:48.915Z,23.37
2019-03-22T09:18:48.748Z,23.39
2019-03-22T09:19:51.080Z,23.37
2019-03-22T09:20:48.739Z,23.44
2019-03-22T09:21:48.715Z,23.39
2019-03-22T09:22:48.702Z,23.33
2019-03-22T09:23:48.793Z,23.32
2019-03-22T09:24:48.735Z,23.28
2019-03-22T09:25:48.698Z,23.33
2019-03-22T09:26:48.672Z,23.28
2019-03-22T09:27:48.656Z,23.26
2019-03-22T09:28:48.650Z,23.33
2019-03-22T09:29:48.841Z,23.39
2019-03-22T09:30:48.645Z,23.37
2019-03-22T09:31:48.615Z,23.39
2019-03-22T09:32:48.640Z,23.42
2019-03-22T09:33:48.589Z,23.34
2019-03-22T09:34:48.599Z,23.42
2019-03-22T09:35:48.865Z,23.34
2019-03-22T09:36:48.572Z,23.34
2019-03-22T09:37:48.545Z,23.36
2019-03-22T09:38:48.556Z,23.34
2019-03-22T09:39:48.528Z,23.44
2019-03-22T09:40:48.562Z,23.40
2019-03-22T09:41:48.665Z,23.33
2019-03-22T09:42:49.155Z,23.29
2019-03-22T09:43:48.504Z,23.26
2019-03-22T09:44:48.484Z,23.28
2019-03-22T09:45:48.503Z,23.23
2019-03-22T09:46:48.468Z,23.17
2019-03-22T09:47:48.661Z,23.11
2019-03-22T09:48:48.422Z,22.98
2019-03-22T09:49:51.123Z,23.10
2019-03-22T09:50:48.400Z,23.07
2019-03-22T09:51:48.389Z,23.07
2019-03-22T09:52:48.379Z,23.07
2019-03-22T09:53:48.682Z,23.06
2019-03-22T09:54:48.359Z,23.08
2019-03-22T09:55:48.407Z,22.99
2019-03-22T09:56:48.377Z,23.21
2019-03-22T09:57:49.553Z,23.14
2019-03-22T09:58:48.323Z,23.28
2019-03-22T09:59:48.453Z,23.29
2019-03-22T10:00:48.916Z,23.25
2019-03-22T10:01:48.297Z,23.21
2019-03-22T10:02:48.347Z,23.32
2019-03-22T10:03:48.258Z,23.34
2019-03-22T10:04:48.291Z,23.36
2019-03-22T10:05:48.405Z,23.39
2019-03-22T10:06:48.256Z,23.34
2019-03-22T10:07:50.094Z,23.47
2019-03-22T10:08:48.232Z,23.47
2019-03-22T10:09:48.216Z,23.47
2019-03-22T10:10:48.183Z,23.49
2019-03-22T10:11:48.838Z,23.45
2019-03-22T10:12:48.192Z,23.34
2019-03-22T10:13:48.533Z,23.44
2019-03-22T10:14:48.187Z,23.26
2019-03-22T10:15:48.129Z,23.25
2019-03-22T10:16:48.134Z,23.21
2019-03-22T10:17:48.314Z,23.13
2019-03-22T10:18:48.147Z,23.01
2019-03-22T10:19:48.097Z,23.01
2019-03-22T10:20:48.094Z,23.01
2019-03-22T10:21:48.065Z,22.93
2019-03-22T10:22:48.105Z,22.96
2019-03-22T10:23:48.152Z,22.92
2019-03-22T10:24:48.033Z,22.88
2019-03-22T10:25:48.023Z,22.91
2019-03-22T10:26:48.011Z,22.89
2019-03-22T10:27:48.808Z,22.91
2019-03-22T10:28:47.989Z,22.86
2019-03-22T10:29:48.271Z,22.93
2019-03-22T10:30:47.968Z,22.91
2019-03-22T10:31:48.023Z,23.04
2019-03-22T10:32:47.998Z,23.01
2019-03-22T10:33:47.934Z,23.02
2019-03-22T10:34:47.962Z,23.13
2019-03-22T10:35:48.202Z,23.13
2019-03-22T10:36:47.908Z,23.17
2019-03-22T10:37:47.939Z,23.28
2019-03-22T10:38:50.322Z,23.32
2019-03-22T10:39:47.871Z,23.32
2019-03-22T10:40:47.906Z,23.37
2019-03-22T10:41:48.033Z,23.42
2019-03-22T10:42:47.841Z,23.34
2019-03-22T10:43:47.843Z,23.49
2019-03-22T10:44:47.819Z,23.49
2019-03-22T10:45:47.848Z,23.54
2019-03-22T10:46:47.801Z,23.52
2019-03-22T10:47:47.982Z,23.66
2019-03-22T10:48:47.866Z,23.67
2019-03-22T10:49:47.769Z,23.69
2019-03-22T10:50:47.753Z,23.73
2019-03-22T10:51:56.738Z,23.74
2019-03-22T10:52:48.852Z,23.81
2019-03-22T10:53:47.806Z,23.77
2019-03-22T10:54:47.762Z,23.77
2019-03-22T10:55:47.702Z,23.74
2019-03-22T10:56:47.684Z,23.77
2019-03-22T10:57:47.676Z,23.86
2019-03-22T10:58:47.863Z,23.79
2019-03-22T10:59:47.655Z,23.88
2019-03-22T11:00:47.645Z,23.73
2019-03-22T11:02:02.281Z,23.79
2019-03-22T11:02:48.621Z,23.81
2019-03-22T11:03:47.749Z,23.79
2019-03-22T11:04:47.775Z,23.89
2019-03-22T11:05:47.592Z,23.92
2019-03-22T11:06:47.585Z,23.91
2019-03-22T11:07:47.567Z,23.86
2019-03-22T11:08:47.561Z,23.92
2019-03-22T11:09:47.547Z,23.92
2019-03-22T11:10:47.625Z,23.94
2019-03-22T11:11:47.523Z,23.95
2019-03-22T11:12:47.513Z,23.94
2019-03-22T11:13:47.505Z,23.92
2019-03-22T11:14:47.490Z,23.91
2019-03-22T11:15:48.790Z,23.89
2019-03-22T11:16:47.701Z,23.91
2019-03-22T11:17:47.478Z,23.95
2019-03-22T11:18:47.460Z,23.92
2019-03-22T11:19:47.450Z,23.94
2019-03-22T11:20:47.437Z,23.96
2019-03-22T11:21:47.428Z,23.99
2019-03-22T11:22:47.585Z,23.96
2019-03-22T11:23:47.411Z,23.85
2019-03-22T11:24:47.395Z,23.94
2019-03-22T11:25:47.394Z,24.00
2019-03-22T11:26:47.373Z,24.03
2019-03-22T11:27:47.358Z,23.92
2019-03-22T11:28:47.447Z,23.94
2019-03-22T11:29:47.345Z,23.92
2019-03-22T11:30:47.326Z,23.99
2019-03-22T11:31:47.317Z,23.95
2019-03-22T11:32:47.307Z,23.95
2019-03-22T11:33:47.297Z,24.00
2019-03-22T11:34:47.455Z,23.92
2019-03-22T11:35:47.275Z,23.99
2019-03-22T11:36:47.290Z,24.01
2019-03-22T11:37:47.250Z,24.09
2019-03-22T11:38:47.242Z,24.13
2019-03-22T11:39:47.233Z,24.09
2019-03-22T11:40:47.496Z,24.16
2019-03-22T11:41:47.210Z,24.14
2019-03-22T11:42:47.209Z,24.11
2019-03-22T11:43:47.184Z,24.13
2019-03-22T11:44:47.182Z,24.14
2019-03-22T11:45:47.170Z,24.14
2019-03-22T11:46:47.276Z,24.25
2019-03-22T11:47:47.142Z,24.26
2019-03-22T11:48:47.134Z,24.25
2019-03-22T11:49:47.120Z,24.26
2019-03-22T11:50:47.117Z,24.31
2019-03-22T11:51:47.101Z,24.28
2019-03-22T11:52:47.205Z,24.24
2019-03-22T11:53:47.078Z,24.31
2019-03-22T11:54:47.068Z,24.29
2019-03-22T11:55:47.046Z,24.25
2019-03-22T11:56:47.062Z,24.28
2019-03-22T11:57:48.022Z,24.28
2019-03-22T11:58:47.193Z,24.25
2019-03-22T11:59:47.003Z,24.32
2019-03-22T12:00:47.124Z,24.43
2019-03-22T12:01:47.052Z,24.46
2019-03-22T12:02:46.980Z,24.41
2019-03-22T12:03:46.974Z,24.43
2019-03-22T12:04:47.229Z,24.41
2019-03-22T12:05:46.959Z,24.44
2019-03-22T12:06:46.948Z,24.51
2019-03-22T12:07:46.932Z,24.51
2019-03-22T12:08:46.944Z,24.58
2019-03-22T12:09:46.904Z,24.59
2019-03-22T12:10:47.002Z,24.59
2019-03-22T12:11:46.896Z,24.55
2019-03-22T12:12:46.882Z,24.58
2019-03-22T12:13:46.881Z,24.66
2019-03-22T12:14:46.845Z,24.58
2019-03-22T12:15:46.842Z,24.58
2019-03-22T12:16:46.924Z,24.55
2019-03-22T12:17:46.817Z,24.58
2019-03-22T12:18:46.809Z,24.59
2019-03-22T12:19:46.795Z,24.62
2019-03-22T12:20:46.779Z,24.58
2019-03-22T12:21:46.769Z,24.55
2019-03-22T12:22:46.874Z,24.58
2019-03-22T12:23:46.759Z,24.53
2019-03-22T12:24:46.742Z,24.48
2019-03-22T12:25:46.731Z,24.41
2019-03-22T12:26:46.720Z,24.46
2019-03-22T12:27:48.389Z,24.41
2019-03-22T12:28:47.000Z,24.50
2019-03-22T12:29:46.690Z,24.56
2019-03-22T12:30:46.680Z,24.58
2019-03-22T12:31:46.659Z,24.51
2019-03-22T12:32:46.668Z,24.51
2019-03-22T12:33:46.649Z,24.62
2019-03-22T12:34:46.883Z,24.68
2019-03-22T12:35:46.617Z,24.59
2019-03-22T12:36:46.653Z,24.62
2019-03-22T12:37:46.602Z,24.66
2019-03-22T12:38:46.593Z,24.66
2019-03-22T12:39:46.575Z,24.65
2019-03-22T12:40:46.702Z,24.71
2019-03-22T12:41:46.552Z,24.82
2019-03-22T12:42:46.544Z,24.82
2019-03-22T12:43:46.545Z,24.78
2019-03-22T12:44:46.520Z,24.75
2019-03-22T12:45:46.507Z,24.78
2019-03-22T12:46:46.602Z,24.78
2019-03-22T12:47:46.485Z,24.86
2019-03-22T12:48:46.501Z,24.85
2019-03-22T12:49:46.465Z,24.88
2019-03-22T12:50:46.462Z,24.84
2019-03-22T12:51:46.469Z,24.88
2019-03-22T12:52:46.612Z,24.82